Time;durP1;ratioP1;P1;durP2;ratioP2;P2;SDS_P1;SDS_P2;PMS_P1;PMS_P2;Temp;Humidity;BMP_temperature;BMP_pressure;BME280_temperature;BME280_humidity;BME280_pressure;Samples;Min_cycle;Max_cycle;Signal;HPM_P1;HPM_P2
2022/02/09 00:04:36;;;;;;;6.45;1.20;;;13.60;69.00;;;;;;5077741;28;20060;-78
2022/02/09 00:06:44;;;;;;;4.22;1.10;;;13.60;68.90;;;;;;5062892;28;20121;-78
2022/02/09 00:09:10;;;;;;;6.22;1.38;;;13.50;68.90;;;;;;5077230;28;20055;-77
2022/02/09 00:12:01;;;;;;;4.30;1.33;;;13.50;68.90;;;;;;5077357;28;20197;-78
2022/02/09 00:23:07;;;;;;;;;;;13.40;68.70;;;;;;5077237;28;20052;-76
2022/02/09 00:31:21;;;;;;;5.10;1.40;;;13.40;68.50;;;;;;5081426;28;20048;-77
2022/02/09 00:39:45;;;;;;;7.03;0.98;;;13.40;68.40;;;;;;5045680;28;20071;-78
2022/02/09 01:12:28;;;;;;;5.07;0.80;;;13.30;68.60;;;;;;5075849;28;20056;-77
2022/02/09 01:55:50;;;;;;;8.48;1.63;;;13.20;68.70;;;;;;5075790;28;20052;-77
2022/02/09 01:58:17;;;;;;;5.95;1.20;;;13.20;68.80;;;;;;5075134;28;20052;-77
2022/02/09 02:00:43;;;;;;;5.68;1.38;;;13.20;68.60;;;;;;5075076;28;20055;-77
2022/02/09 02:03:09;;;;;;;5.65;1.33;;;13.20;68.70;;;;;;5075255;28;20053;-78
2022/02/09 02:05:35;;;;;;;7.75;1.70;;;13.10;68.50;;;;;;5075290;28;20048;-78
2022/02/09 02:08:03;;;;;;;4.88;1.42;;;13.10;68.80;;;;;;5075384;28;20390;-76
2022/02/09 02:10:40;;;;;;;7.28;1.60;;;13.10;68.90;;;;;;5075050;28;20360;-77
2022/02/09 02:13:33;;;;;;;4.85;1.20;;;13.10;68.90;;;;;;5069439;28;20394;-77
2022/02/09 02:16:16;;;;;;;5.97;1.10;;;13.10;68.80;;;;;;5070764;28;20150;-76
2022/02/09 02:18:45;;;;;;;6.70;1.63;;;13.10;68.80;;;;;;5038828;28;20104;-78
2022/02/09 02:23:56;;;;;;;6.22;1.58;;;13.10;68.70;;;;;;5054859;28;20053;-77
2022/02/09 02:32:24;;;;;;;4.85;1.30;;;13.10;68.80;;;;;;5054580;28;20053;-76
2022/02/09 02:37:03;;;;;;;5.22;1.33;;;13.10;68.60;;;;;;5061730;28;20044;-77
2022/02/09 02:47:47;;;;;;;3.85;1.10;;;13.00;68.30;;;;;;5074905;28;20052;-78
2022/02/09 03:15:15;;;;;;;5.32;0.98;;;13.00;68.20;;;;;;5045060;28;20057;-77
2022/02/09 03:17:10;;;;;;;4.15;1.00;;;13.00;68.40;;;;;;5063735;28;20055;-78
2022/02/09 03:30:51;;;;;;;6.32;1.70;;;12.90;68.60;;;;;;5080839;28;20063;-79
2022/02/09 03:52:02;;;;;;;6.40;1.63;;;12.90;69.20;;;;;;5097787;28;20052;-76
2022/02/09 03:54:38;;;;;;;5.38;1.80;;;12.90;69.10;;;;;;5097865;28;20048;-77
2022/02/09 03:57:20;;;;;;;7.45;1.77;;;12.90;69.10;;;;;;5097712;28;20048;-76
2022/02/09 03:59:46;;;;;;;4.13;1.20;;;12.90;69.00;;;;;;5079882;28;20059;-76
2022/02/09 04:02:12;;;;;;;5.70;1.33;;;12.90;69.10;;;;;;5097172;28;20415;-76
2022/02/09 04:04:37;;;;;;;6.38;1.10;;;12.90;69.20;;;;;;5097509;28;20048;-76
2022/02/09 04:07:03;;;;;;;4.50;1.02;;;12.90;69.10;;;;;;5097325;28;20135;-77
2022/02/09 04:09:30;;;;;;;5.35;0.95;;;12.90;69.10;;;;;;5097130;28;20086;-77
2022/02/09 04:12:04;;;;;;;7.32;1.42;;;12.90;69.10;;;;;;5080533;28;20056;-76
2022/02/09 04:14:52;;;;;;;9.10;1.27;;;12.90;69.20;;;;;;5097796;28;20063;-77
2022/02/09 04:20:07;;;;;;;7.35;1.58;;;12.90;69.20;;;;;;5079734;28;20044;-76
2022/02/09 04:38:55;;;;;;;8.98;1.55;;;12.90;69.00;;;;;;5045639;28;20051;-77
2022/02/09 04:44:35;;;;;;;6.38;1.23;;;12.80;68.50;;;;;;5096114;28;19924;-78
2022/02/09 04:47:21;;;;;;;8.73;1.38;;;12.80;68.90;;;;;;5069187;28;20088;-78
2022/02/09 04:59:57;;;;;;;5.00;1.23;;;12.80;69.10;;;;;;5076369;28;20044;-77
2022/02/09 05:24:16;;;;;;;17.15;3.17;;;13.50;66.80;;;;;;5081138;28;20079;-79
2022/02/09 05:26:49;;;;;;;13.23;2.53;;;13.50;67.60;;;;;;5093565;28;20047;-81
2022/02/09 05:29:14;;;;;;;9.80;2.10;;;13.60;68.20;;;;;;5041288;28;20044;-76
2022/02/09 05:31:40;;;;;;;9.32;2.15;;;13.70;67.50;;;;;;5075679;28;20283;-84
2022/02/09 05:34:08;;;;;;;8.27;1.70;;;13.80;67.10;;;;;;5057956;28;20041;-81
2022/02/09 05:36:38;;;;;;;11.10;2.90;;;14.10;66.80;;;;;;5075537;28;20132;-87
2022/02/09 05:39:04;;;;;;;10.98;1.85;;;14.30;66.70;;;;;;5040838;28;20046;-78
2022/02/09 05:41:31;;;;;;;10.95;2.20;;;14.60;66.60;;;;;;5075312;28;20123;-82
2022/02/09 05:43:57;;;;;;;9.55;1.52;;;14.90;66.70;;;;;;5040901;28;20101;-75
2022/02/09 05:50:03;;;;;;;8.68;1.60;;;14.70;68.30;;;;;;5083716;28;20462;-80
2022/02/09 05:52:25;;;;;;;8.85;1.90;;;14.90;68.50;;;;;;5064006;28;20049;-78
2022/02/09 05:59:51;;;;;;;11.73;2.67;;;15.20;68.60;;;;;;5082421;28;20143;-80
2022/02/09 06:02:19;;;;;;;11.60;1.95;;;15.30;68.90;;;;;;5057846;28;20470;-80
2022/02/09 06:04:45;;;;;;;6.93;1.83;;;15.30;68.80;;;;;;5074778;28;20098;-80
2022/02/09 06:07:13;;;;;;;10.48;1.80;;;15.40;69.10;;;;;;5054294;28;20079;-79
2022/02/09 06:09:42;;;;;;;12.82;1.55;;;15.30;68.20;;;;;;5075210;28;20379;-83
2022/02/09 06:12:15;;;;;;;15.00;1.88;;;15.30;67.40;;;;;;5040584;28;20120;-79
2022/02/09 06:19:54;;;;;;;9.10;1.85;;;15.60;68.60;;;;;;5078957;28;20049;-82
2022/02/09 06:22:21;;;;;;;18.73;2.15;;;15.80;68.70;;;;;;5085781;28;20119;-81
2022/02/09 06:24:46;;;;;;;15.05;2.63;;;15.80;68.30;;;;;;5115355;28;20036;-81
2022/02/09 06:27:14;;;;;;;15.48;2.35;;;16.00;68.30;;;;;;5097336;28;20112;-82
2022/02/09 06:29:45;;;;;;;13.68;2.03;;;16.10;68.30;;;;;;5097601;28;20050;-83
2022/02/09 06:32:12;;;;;;;12.93;2.60;;;16.20;68.30;;;;;;5069281;28;20462;-81
2022/02/09 06:34:39;;;;;;;14.98;2.22;;;16.30;68.50;;;;;;5077748;28;20153;-81
2022/02/09 06:37:20;;;;;;;12.70;1.98;;;16.40;67.90;;;;;;5061206;28;20045;-80
2022/02/09 06:39:49;;;;;;;13.65;1.90;;;16.50;67.40;;;;;;5079417;28;20052;-79
2022/02/09 06:42:21;;;;;;;10.57;1.80;;;16.50;66.90;;;;;;5096105;28;20075;-81
2022/02/09 06:44:47;;;;;;;8.77;1.88;;;16.60;67.40;;;;;;5044527;28;20040;-80
2022/02/09 06:47:14;;;;;;;14.38;2.05;;;16.60;67.40;;;;;;5078518;28;20044;-73
2022/02/09 06:49:43;;;;;;;16.85;1.65;;;16.60;67.80;;;;;;5072054;28;20129;-84
2022/02/09 06:52:12;;;;;;;10.70;2.00;;;16.70;67.60;;;;;;5052553;28;20053;-81
2022/02/09 06:54:54;;;;;;;14.77;2.40;;;16.50;65.90;;;;;;5078227;28;20033;-85
2022/02/09 06:57:44;;;;;;;13.75;2.28;;;16.70;66.40;;;;;;5080985;28;20035;-79
2022/02/09 07:00:07;;;;;;;13.32;1.95;;;16.70;66.20;;;;;;5070277;28;20458;-78
2022/02/09 07:02:33;;;;;;;19.80;2.17;;;16.70;66.40;;;;;;5060540;28;20119;-79
2022/02/09 07:04:59;;;;;;;18.70;1.98;;;16.80;66.30;;;;;;5078392;28;20128;-80
2022/02/09 07:07:26;;;;;;;11.15;2.25;;;16.70;66.40;;;;;;5060676;28;20390;-79
2022/02/09 07:09:51;;;;;;;14.27;2.10;;;16.80;66.50;;;;;;5060884;28;20113;-77
2022/02/09 07:12:18;;;;;;;16.25;2.28;;;16.80;66.40;;;;;;5081027;28;20044;-78
2022/02/09 07:14:43;;;;;;;14.95;2.58;;;16.80;66.60;;;;;;5092034;28;20499;-79
2022/02/09 07:17:09;;;;;;;17.30;3.22;;;16.80;66.40;;;;;;5096828;28;20131;-78
2022/02/09 07:19:37;;;;;;;15.07;2.33;;;16.70;66.00;;;;;;5065945;28;20057;-79
2022/02/09 07:22:03;;;;;;;11.68;1.90;;;16.70;66.90;;;;;;5067561;28;20044;-79
2022/02/09 07:24:30;;;;;;;11.05;2.45;;;16.60;66.30;;;;;;5059404;28;20051;-78
2022/02/09 07:27:25;;;;;;;21.80;2.30;;;16.60;66.30;;;;;;5078338;28;20049;-79
2022/02/09 07:29:51;;;;;;;13.35;2.20;;;16.50;66.30;;;;;;5077933;28;20552;-79
2022/02/09 07:32:17;;;;;;;12.05;1.73;;;16.40;66.30;;;;;;5077765;28;20065;-79
2022/02/09 07:34:42;;;;;;;6.43;1.08;;;16.40;66.30;;;;;;5078099;28;20053;-78
2022/02/09 07:37:08;;;;;;;8.40;1.67;;;16.30;66.10;;;;;;5060303;28;20040;-79
2022/02/09 07:39:35;;;;;;;9.77;1.73;;;16.30;66.90;;;;;;5077281;28;20569;-78
2022/02/09 07:42:08;;;;;;;7.75;1.80;;;16.30;66.40;;;;;;5095469;28;20055;-78
2022/02/09 07:44:52;;;;;;;;;;;16.20;66.70;;;;;;5075917;28;20036;-83
2022/02/09 07:51:01;;;;;;;;;;;16.20;66.70;;;;;;5080242;28;20131;-81
2022/02/09 07:52:52;;;;;;;10.77;1.98;;;16.20;66.50;;;;;;5069709;28;19928;-77
2022/02/09 07:55:18;;;;;;;8.85;2.05;;;16.20;66.60;;;;;;5077375;28;20051;-78
2022/02/09 07:57:45;;;;;;;7.70;1.60;;;16.10;66.20;;;;;;5043001;28;20044;-78
2022/02/09 08:00:13;;;;;;;14.57;2.78;;;16.20;65.90;;;;;;5077447;28;20064;-77
2022/02/09 08:02:39;;;;;;;7.65;1.52;;;16.10;65.60;;;;;;5059849;28;20055;-76
2022/02/09 08:05:05;;;;;;;10.40;1.80;;;16.10;64.70;;;;;;5061012;28;20041;-77
2022/02/09 08:07:31;;;;;;;7.22;1.77;;;16.00;63.80;;;;;;5076934;28;20040;-76
2022/02/09 08:09:58;;;;;;;9.10;1.50;;;16.00;63.80;;;;;;5077328;28;20045;-76
2022/02/09 08:12:51;;;;;;;5.55;1.48;;;15.90;63.90;;;;;;5077353;28;20048;-77
2022/02/09 08:24:01;;;;;;;5.07;1.00;;;15.80;64.70;;;;;;5059235;28;20059;-78
2022/02/09 08:29:19;;;;;;;6.15;1.48;;;15.80;65.00;;;;;;5059753;28;20510;-76
2022/02/09 08:34:12;;;;;;;5.88;1.30;;;15.70;65.60;;;;;;5077369;28;20059;-76
2022/02/09 08:36:38;;;;;;;8.57;1.80;;;15.70;65.60;;;;;;5076735;28;20087;-76
2022/02/09 08:39:06;;;;;;;8.15;1.52;;;15.70;65.30;;;;;;5076838;28;20052;-76
2022/02/09 08:41:32;;;;;;;7.22;1.50;;;15.00;64.00;;;;;;5059693;28;20131;-77
2022/02/09 08:43:57;;;;;;;7.72;1.17;;;14.60;65.30;;;;;;5076636;28;20423;-77
2022/02/09 08:46:23;;;;;;;6.70;1.30;;;14.40;67.40;;;;;;5076778;28;20036;-77
2022/02/09 08:48:49;;;;;;;7.57;1.38;;;14.60;67.90;;;;;;5077155;28;20040;-77
2022/02/09 08:51:15;;;;;;;4.68;0.98;;;14.70;67.80;;;;;;5077273;28;20453;-76
2022/02/09 08:53:40;;;;;;;5.97;1.00;;;14.80;67.50;;;;;;5071342;28;20436;-77
2022/02/09 08:56:09;;;;;;;5.88;1.08;;;14.90;67.20;;;;;;5075171;28;20044;-77
2022/02/09 08:58:36;;;;;;;6.85;1.50;;;15.00;66.90;;;;;;5076345;28;20439;-76
2022/02/09 09:01:10;;;;;;;7.38;1.45;;;15.10;66.80;;;;;;5076631;28;20040;-76
2022/02/09 09:03:51;;;;;;;5.90;1.05;;;15.10;66.60;;;;;;5075921;28;20374;-76
2022/02/09 09:06:22;;;;;;;3.53;1.00;;;15.20;66.50;;;;;;5076242;28;20043;-77
2022/02/09 10:33:56;;;;;;;7.05;1.27;;;15.40;65.80;;;;;;5074762;28;20044;-76
2022/02/09 10:36:23;;;;;;;8.73;1.50;;;15.40;65.80;;;;;;5075116;28;20127;-76
2022/02/09 10:39:10;;;;;;;12.15;1.50;;;15.30;65.20;;;;;;5057037;28;20057;-76
2022/02/09 10:41:49;;;;;;;8.02;1.20;;;15.20;65.20;;;;;;5074682;28;20083;-75
2022/02/09 10:44:22;;;;;;;7.40;1.60;;;15.10;65.30;;;;;;5075236;28;20049;-76
2022/02/09 10:46:49;;;;;;;6.53;1.70;;;15.10;65.60;;;;;;5074756;28;20132;-76
2022/02/09 10:49:18;;;;;;;6.53;1.48;;;15.10;65.70;;;;;;5057313;28;20471;-75
2022/02/09 10:54:12;;;;;;;4.63;1.00;;;15.10;65.70;;;;;;5077343;28;20055;-76
2022/02/09 10:57:11;;;;;;;9.35;1.52;;;15.10;65.80;;;;;;5094651;28;20040;-78
2022/02/09 10:59:38;;;;;;;6.47;1.40;;;15.10;65.80;;;;;;5070143;28;20044;-77
2022/02/09 11:02:05;;;;;;;6.47;1.27;;;15.10;66.10;;;;;;5085526;28;20044;-76
2022/02/09 11:04:32;;;;;;;11.95;2.08;;;15.10;66.00;;;;;;5083245;28;20475;-78
2022/02/09 11:07:00;;;;;;;7.13;1.55;;;15.10;65.80;;;;;;5074659;28;20095;-76
2022/02/09 11:09:27;;;;;;;7.25;1.75;;;15.10;65.80;;;;;;5079999;28;20450;-75
2022/02/09 11:11:53;;;;;;;10.27;1.70;;;15.30;65.80;;;;;;5055440;28;20147;-76
2022/02/09 11:14:20;;;;;;;7.75;1.30;;;15.40;65.40;;;;;;5094735;28;20502;-76
2022/02/09 11:16:51;;;;;;;8.15;1.40;;;15.60;65.30;;;;;;5092185;28;20140;-77
2022/02/09 11:19:18;;;;;;;5.72;1.42;;;15.70;65.00;;;;;;5077518;28;20048;-77
2022/02/09 11:21:49;;;;;;;7.97;1.45;;;15.80;64.70;;;;;;5097863;28;20399;-76
2022/02/09 11:24:25;;;;;;;7.95;1.52;;;15.80;64.80;;;;;;5098651;28;20112;-76
2022/02/09 11:27:09;;;;;;;7.32;1.20;;;15.90;64.80;;;;;;5098281;28;20044;-75
2022/02/09 11:29:47;;;;;;;;;;;15.90;64.70;;;;;;5080229;28;20455;-75
2022/02/09 11:39:53;;;;;;;7.15;1.88;;;15.90;65.00;;;;;;5097825;28;20131;-77
2022/02/09 11:42:46;;;;;;;10.13;1.65;;;16.00;64.90;;;;;;5097663;28;20043;-78
2022/02/09 11:51:19;;;;;;;7.13;1.55;;;16.20;64.60;;;;;;5076693;28;20075;-75
2022/02/09 12:00:08;;;;;;;5.93;1.20;;;16.60;63.80;;;;;;5060155;28;20136;-75
2022/02/09 12:11:30;;;;;;;4.53;1.00;;;17.00;63.00;;;;;;5097282;28;20055;-76
2022/02/09 12:14:01;;;;;;;9.90;1.55;;;17.00;62.90;;;;;;5097737;28;20434;-77
2022/02/09 12:16:48;;;;;;;6.93;1.38;;;17.10;62.70;;;;;;5076704;28;20062;-76
2022/02/09 12:19:28;;;;;;;12.75;1.55;;;17.10;62.60;;;;;;5077216;28;20052;-76
2022/02/09 12:22:37;;;;;;;5.60;1.20;;;17.10;62.70;;;;;;5076813;28;20055;-78
2022/02/09 12:24:46;;;;;;;6.97;1.60;;;17.10;62.70;;;;;;5057074;28;20186;-79
2022/02/09 12:27:15;;;;;;;8.95;1.67;;;17.10;62.80;;;;;;5077294;28;20131;-76
2022/02/09 12:29:43;;;;;;;5.85;1.25;;;17.00;62.80;;;;;;5076895;28;20037;-76
2022/02/09 12:32:15;;;;;;;7.70;1.58;;;17.10;62.90;;;;;;5076786;28;20048;-76
2022/02/09 12:34:45;;;;;;;4.13;1.13;;;17.00;62.80;;;;;;5076682;28;20044;-76
2022/02/09 12:37:15;;;;;;;3.17;0.98;;;17.00;63.00;;;;;;5076575;28;20049;-76
2022/02/09 12:39:55;;;;;;;6.13;1.08;;;17.00;63.00;;;;;;5077051;28;20048;-77
2022/02/09 12:42:27;;;;;;;9.13;1.00;;;17.00;63.10;;;;;;5076628;28;20039;-77
2022/02/09 12:45:06;;;;;;;5.97;1.00;;;17.00;63.10;;;;;;5059301;28;20120;-76
2022/02/09 12:47:43;;;;;;;5.68;1.52;;;17.00;63.20;;;;;;5076428;28;20427;-77
2022/02/09 12:50:30;;;;;;;6.50;1.27;;;17.00;63.20;;;;;;5074570;28;20082;-78
2022/02/09 12:52:56;;;;;;;6.47;1.17;;;17.00;63.20;;;;;;5078789;28;20040;-78
2022/02/09 12:55:24;;;;;;;5.13;1.25;;;17.00;63.20;;;;;;5077518;28;20340;-78
2022/02/09 12:57:53;;;;;;;7.72;1.25;;;16.50;63.50;;;;;;5095425;28;20188;-78
2022/02/09 13:00:43;;;;;;;11.35;1.38;;;16.50;64.00;;;;;;5094614;28;20048;-78
2022/02/09 13:03:21;;;;;;;6.32;1.00;;;16.60;64.10;;;;;;5062544;28;20463;-77
2022/02/09 13:06:00;;;;;;;3.92;0.93;;;16.50;64.00;;;;;;5095974;28;20043;-78
2022/02/09 13:08:29;;;;;;;6.53;1.48;;;16.50;63.90;;;;;;5078875;28;20088;-78
2022/02/09 13:11:11;;;;;;;10.25;1.42;;;16.50;63.90;;;;;;5096080;28;20044;-78
2022/02/09 13:13:41;;;;;;;7.43;1.50;;;16.50;63.90;;;;;;5096442;28;20048;-78
2022/02/09 13:16:14;;;;;;;4.50;1.10;;;16.50;63.90;;;;;;5078121;28;20048;-76
2022/02/09 13:19:06;;;;;;;7.82;1.50;;;16.40;63.90;;;;;;5095992;28;20059;-76
2022/02/09 14:52:58;;;;;;;14.85;2.70;;;17.20;64.40;;;;;;5078050;28;20048;-77
2022/02/09 14:58:08;;;;;;;19.80;2.75;;;17.20;64.30;;;;;;5079854;28;20052;-77
2022/02/09 15:00:51;;;;;;;25.98;2.63;;;17.20;64.40;;;;;;5077030;28;20048;-77
2022/02/09 15:04:14;;;;;;;8.80;1.63;;;17.20;64.50;;;;;;5077126;28;20052;-76
2022/02/09 15:11:27;;;;;;;10.85;2.08;;;17.20;64.50;;;;;;5060670;28;20056;-76
2022/02/09 15:14:20;;;;;;;8.68;1.90;;;17.20;64.60;;;;;;5078353;28;20063;-78
2022/02/09 15:17:00;;;;;;;16.83;2.47;;;17.10;64.80;;;;;;5055893;28;20061;-76
2022/02/09 15:22:16;;;;;;;27.55;3.00;;;17.10;65.10;;;;;;5013146;28;20084;-78
2022/02/09 15:24:44;;;;;;;17.65;2.47;;;17.10;65.30;;;;;;5057779;28;20055;-80
2022/02/09 15:27:20;;;;;;;15.90;2.15;;;17.10;65.30;;;;;;5040558;28;20041;-81
2022/02/09 15:29:50;;;;;;;19.52;2.22;;;17.10;65.40;;;;;;5057858;28;20117;-78
2022/02/09 15:32:41;;;;;;;14.30;2.20;;;17.00;65.10;;;;;;5024138;28;20044;-79
2022/02/09 15:35:23;;;;;;;12.07;2.05;;;17.00;65.30;;;;;;5048676;28;20469;-75
2022/02/09 15:37:58;;;;;;;13.65;1.55;;;17.00;65.20;;;;;;5024375;28;20437;-76
2022/02/09 15:57:38;;;;;;;11.93;2.28;;;17.10;65.50;;;;;;5048467;28;20052;-76
2022/02/09 16:05:56;;;;;;;15.27;2.38;;;17.10;66.20;;;;;;5038462;28;20037;-79
2022/02/09 16:09:07;;;;;;;9.73;2.00;;;17.10;66.10;;;;;;5057447;28;20462;-80
2022/02/09 16:22:38;;;;;;;7.18;1.65;;;17.10;67.60;;;;;;5086809;28;20076;-80
2022/02/09 16:25:19;;;;;;;9.80;2.08;;;17.10;68.00;;;;;;5079101;28;20054;-78
2022/02/09 16:33:20;;;;;;;8.93;1.63;;;17.10;68.70;;;;;;5076617;28;20044;-80
2022/02/09 16:46:50;;;;;;;7.78;1.80;;;17.00;68.90;;;;;;5076250;28;20060;-81
2022/02/09 16:49:26;;;;;;;12.93;1.80;;;17.00;68.80;;;;;;5058778;28;20066;-78
2022/02/09 16:52:39;;;;;;;8.18;2.15;;;17.00;68.90;;;;;;5076890;28;20044;-78
2022/02/09 17:19:00;;;;;;;11.40;1.85;;;17.00;69.00;;;;;;5056978;28;19917;-78
2022/02/09 17:21:27;;;;;;;8.85;1.45;;;16.90;68.60;;;;;;5057992;28;20371;-80
2022/02/09 17:23:57;;;;;;;10.70;1.75;;;17.00;68.70;;;;;;5075513;28;20060;-79
2022/02/09 17:26:24;;;;;;;12.60;2.00;;;17.00;68.50;;;;;;5040689;28;20375;-81
2022/02/09 17:29:03;;;;;;;8.13;1.63;;;17.00;68.40;;;;;;5053919;28;20053;-80
2022/02/09 17:36:46;;;;;;;5.85;1.23;;;17.00;67.90;;;;;;5055425;28;20048;-80
2022/02/09 17:58:10;;;;;;;6.80;1.30;;;17.10;66.40;;;;;;5065212;28;20349;-79
2022/02/09 18:00:35;;;;;;;5.22;1.45;;;17.10;66.40;;;;;;5021701;28;20049;-80
2022/02/09 18:03:01;;;;;;;8.70;1.35;;;17.10;66.30;;;;;;5037699;28;20053;-80
2022/02/09 18:08:04;;;;;;;6.38;1.23;;;17.10;66.10;;;;;;5054954;28;20048;-79
2022/02/09 18:29:06;;;;;;;5.70;1.30;;;16.80;66.10;;;;;;5037970;28;20084;-79
2022/02/09 18:31:54;;;;;;;;;;;16.70;66.10;;;;;;5039567;28;20128;-80
2022/02/09 18:44:56;;;;;;;6.22;1.30;;;16.50;66.30;;;;;;5055060;28;20111;-80
2022/02/09 19:06:00;;;;;;;7.82;1.00;;;16.40;66.40;;;;;;5047044;28;20053;-79
2022/02/09 19:46:30;;;;;;;4.32;1.20;;;16.20;66.90;;;;;;5083366;28;20370;-79
2022/02/09 19:49:19;;;;;;;2.97;0.93;;;16.20;66.90;;;;;;5088520;28;20452;-81
2022/02/09 19:56:52;;;;;;;5.45;1.30;;;16.20;67.00;;;;;;5084690;28;20051;-79
2022/02/09 19:59:21;;;;;;;5.75;1.08;;;16.20;67.00;;;;;;5085414;28;20123;-81
2022/02/09 20:01:47;;;;;;;4.60;1.33;;;16.20;67.00;;;;;;5081226;28;20086;-79
2022/02/09 20:04:15;;;;;;;4.38;1.20;;;16.10;66.90;;;;;;5095099;28;20048;-80
2022/02/09 20:06:43;;;;;;;4.95;1.50;;;16.20;67.00;;;;;;5068850;28;20054;-81
2022/02/09 20:09:09;;;;;;;5.93;1.50;;;16.10;66.90;;;;;;5107699;28;20126;-79
2022/02/09 20:11:37;;;;;;;7.95;2.13;;;16.10;66.90;;;;;;5093079;28;20043;-80
2022/02/09 20:14:04;;;;;;;9.38;2.25;;;16.20;66.70;;;;;;5113674;28;20055;-82
2022/02/09 20:16:30;;;;;;;7.57;2.30;;;16.20;66.20;;;;;;5074373;28;20479;-78
2022/02/09 20:18:58;;;;;;;9.70;3.10;;;16.20;65.60;;;;;;5088747;28;20080;-79
2022/02/09 20:21:26;;;;;;;8.48;3.95;;;16.10;64.80;;;;;;5071340;28;20091;-79
2022/02/09 20:23:52;;;;;;;9.48;3.20;;;16.00;64.20;;;;;;5094351;28;20252;-78
2022/02/09 20:26:19;;;;;;;13.25;4.45;;;16.00;64.10;;;;;;5080192;28;20044;-81
2022/02/09 20:28:53;;;;;;;7.55;3.20;;;15.90;63.90;;;;;;5090028;28;20052;-80
2022/02/09 20:31:24;;;;;;;;;;;15.80;63.70;;;;;;5070680;28;20055;-81
2022/02/09 20:33:56;;;;;;;12.00;3.90;;;15.70;63.90;;;;;;5050352;28;19921;-80
2022/02/09 20:36:22;;;;;;;9.07;3.45;;;15.70;63.60;;;;;;5046096;28;20499;-80
2022/02/09 20:38:54;;;;;;;10.05;3.90;;;15.60;63.50;;;;;;5055236;28;20150;-79
2022/02/09 20:41:21;;;;;;;9.05;3.25;;;15.60;63.50;;;;;;5063139;28;20463;-80
2022/02/09 20:46:33;;;;;;;7.88;3.22;;;15.50;63.40;;;;;;5065631;28;20130;-81
2022/02/09 20:49:02;;;;;;;7.53;3.65;;;15.40;63.40;;;;;;5087899;28;20078;-80
2022/02/09 20:51:29;;;;;;;11.55;4.20;;;15.40;63.30;;;;;;5057301;28;20063;-78
2022/02/09 20:53:55;;;;;;;10.30;3.80;;;15.30;63.30;;;;;;5071309;28;20040;-79
2022/02/09 20:56:21;;;;;;;7.72;3.55;;;15.30;63.40;;;;;;5062047;28;20478;-79
2022/02/09 20:58:50;;;;;;;10.18;3.95;;;15.30;63.30;;;;;;5068093;28;20041;-79
2022/02/09 21:01:20;;;;;;;8.60;3.75;;;15.20;63.30;;;;;;5048023;28;20452;-79
2022/02/09 21:03:51;;;;;;;10.93;3.75;;;15.20;63.40;;;;;;5068707;28;20368;-81
2022/02/09 21:46:16;;;;;;;10.95;4.25;;;14.80;64.00;;;;;;5090481;28;20048;-78
2022/02/09 21:57:13;;;;;;;12.32;4.82;;;14.70;64.20;;;;;;5099758;28;20039;-79
2022/02/09 22:22:00;;;;;;;;;;;14.60;66.10;;;;;;5075177;28;20060;-79
2022/02/09 22:45:56;;;;;;;;;;;14.50;66.90;;;;;;5080510;28;20049;-77
2022/02/09 22:48:34;;;;;;;6.65;1.58;;;14.40;66.30;;;;;;5074821;28;19974;-79
2022/02/09 22:56:30;;;;;;;5.40;1.60;;;14.40;67.20;;;;;;5057187;28;20083;-78
2022/02/09 22:58:56;;;;;;;4.95;1.13;;;14.30;67.30;;;;;;5057413;28;20444;-77
2022/02/09 23:01:34;;;;;;;2.97;1.20;;;14.30;67.40;;;;;;5075049;28;20061;-79
2022/02/09 23:07:02;;;;;;;2.97;0.95;;;14.20;67.50;;;;;;5077423;28;20051;-77
2022/02/09 23:12:19;;;;;;;2.92;0.98;;;14.30;67.70;;;;;;5072303;28;20049;-78
2022/02/09 23:14:54;;;;;;;5.05;1.20;;;14.30;67.60;;;;;;5057636;28;20044;-79
2022/02/09 23:26:41;;;;;;;2.17;1.00;;;14.20;67.70;;;;;;5080969;28;20060;-78
2022/02/09 23:58:24;;;;;;;2.17;0.57;;;14.20;67.90;;;;;;5060121;28;20044;-77
